sensor_id;sensor_type;location;lat;lon;timestamp;P1;durP1;ratioP1;P2;durP2;ratioP2
26271;SDS011;13997;48.902;12.472;2023-06-19T00:02:16;11.55;;;7.85;;
26271;SDS011;13997;48.902;12.472;2023-06-19T00:04:42;10.88;;;7.15;;
26271;SDS011;13997;48.902;12.472;2023-06-19T00:07:07;9.10;;;7.32;;
26271;SDS011;13997;48.902;12.472;2023-06-19T00:09:33;11.55;;;7.35;;
26271;SDS011;13997;48.902;12.472;2023-06-19T00:11:58;9.90;;;7.22;;
26271;SDS011;13997;48.902;12.472;2023-06-19T00:14:24;10.90;;;7.75;;
26271;SDS011;13997;48.902;12.472;2023-06-19T00:20:18;15.65;;;8.10;;
26271;SDS011;13997;48.902;12.472;2023-06-19T00:22:44;16.25;;;8.00;;
26271;SDS011;13997;48.902;12.472;2023-06-19T00:31:54;11.73;;;7.80;;
26271;SDS011;13997;48.902;12.472;2023-06-19T00:34:19;9.70;;;7.63;;
26271;SDS011;13997;48.902;12.472;2023-06-19T00:36:45;14.65;;;8.48;;
26271;SDS011;13997;48.902;12.472;2023-06-19T00:39:11;10.98;;;7.22;;
26271;SDS011;13997;48.902;12.472;2023-06-19T01:14:39;8.98;;;6.88;;
26271;SDS011;13997;48.902;12.472;2023-06-19T01:17:29;9.48;;;7.22;;
26271;SDS011;13997;48.902;12.472;2023-06-19T06:54:14;10.82;;;7.90;;
26271;SDS011;13997;48.902;12.472;2023-06-19T07:30:23;15.90;;;7.75;;
26271;SDS011;13997;48.902;12.472;2023-06-19T07:32:49;16.42;;;8.15;;
26271;SDS011;13997;48.902;12.472;2023-06-19T07:35:15;12.00;;;8.50;;
26271;SDS011;13997;48.902;12.472;2023-06-19T07:37:41;16.42;;;8.35;;
26271;SDS011;13997;48.902;12.472;2023-06-19T07:40:07;11.70;;;7.85;;
26271;SDS011;13997;48.902;12.472;2023-06-19T07:42:33;11.63;;;7.18;;
26271;SDS011;13997;48.902;12.472;2023-06-19T07:44:58;15.52;;;8.07;;
26271;SDS011;13997;48.902;12.472;2023-06-19T07:47:26;13.77;;;7.95;;
26271;SDS011;13997;48.902;12.472;2023-06-19T07:49:52;11.98;;;8.00;;
26271;SDS011;13997;48.902;12.472;2023-06-19T07:52:17;10.70;;;8.05;;
26271;SDS011;13997;48.902;12.472;2023-06-19T07:54:53;11.15;;;8.02;;
26271;SDS011;13997;48.902;12.472;2023-06-19T07:57:21;12.90;;;8.10;;
26271;SDS011;13997;48.902;12.472;2023-06-19T07:59:48;12.65;;;8.52;;
26271;SDS011;13997;48.902;12.472;2023-06-19T08:02:20;12.30;;;7.70;;
26271;SDS011;13997;48.902;12.472;2023-06-19T08:04:46;13.88;;;7.88;;
26271;SDS011;13997;48.902;12.472;2023-06-19T08:10:16;12.00;;;7.72;;
26271;SDS011;13997;48.902;12.472;2023-06-19T08:12:42;14.20;;;8.18;;
26271;SDS011;13997;48.902;12.472;2023-06-19T08:15:08;10.80;;;7.82;;
26271;SDS011;13997;48.902;12.472;2023-06-19T08:17:34;15.82;;;8.60;;
26271;SDS011;13997;48.902;12.472;2023-06-19T08:20:01;11.85;;;7.72;;
26271;SDS011;13997;48.902;12.472;2023-06-19T08:22:48;14.13;;;9.25;;
26271;SDS011;13997;48.902;12.472;2023-06-19T08:25:19;9.93;;;7.90;;
26271;SDS011;13997;48.902;12.472;2023-06-19T08:27:45;11.15;;;8.30;;
26271;SDS011;13997;48.902;12.472;2023-06-19T08:30:24;11.82;;;8.18;;
26271;SDS011;13997;48.902;12.472;2023-06-19T08:45:03;12.10;;;8.32;;
26271;SDS011;13997;48.902;12.472;2023-06-19T08:47:32;13.48;;;8.90;;
26271;SDS011;13997;48.902;12.472;2023-06-19T08:50:08;12.80;;;8.73;;
26271;SDS011;13997;48.902;12.472;2023-06-19T08:52:34;14.07;;;8.68;;
26271;SDS011;13997;48.902;12.472;2023-06-19T08:55:00;13.85;;;8.27;;
26271;SDS011;13997;48.902;12.472;2023-06-19T08:57:33;10.85;;;8.35;;
26271;SDS011;13997;48.902;12.472;2023-06-19T08:59:59;18.85;;;9.18;;
26271;SDS011;13997;48.902;12.472;2023-06-19T09:11:19;12.70;;;7.75;;
26271;SDS011;13997;48.902;12.472;2023-06-19T09:13:55;13.02;;;8.98;;
26271;SDS011;13997;48.902;12.472;2023-06-19T09:16:22;13.98;;;8.73;;
26271;SDS011;13997;48.902;12.472;2023-06-19T09:36:53;12.75;;;8.43;;
26271;SDS011;13997;48.902;12.472;2023-06-19T09:39:19;10.68;;;8.55;;
26271;SDS011;13997;48.902;12.472;2023-06-19T09:45:03;14.90;;;8.90;;
26271;SDS011;13997;48.902;12.472;2023-06-19T09:50:27;13.57;;;9.23;;
26271;SDS011;13997;48.902;12.472;2023-06-19T09:52:55;19.98;;;9.55;;
26271;SDS011;13997;48.902;12.472;2023-06-19T09:55:21;13.65;;;8.98;;
26271;SDS011;13997;48.902;12.472;2023-06-19T09:57:49;14.60;;;8.60;;
26271;SDS011;13997;48.902;12.472;2023-06-19T10:00:15;17.33;;;9.38;;
26271;SDS011;13997;48.902;12.472;2023-06-19T10:02:47;11.55;;;8.70;;
26271;SDS011;13997;48.902;12.472;2023-06-19T10:05:14;13.85;;;8.95;;
26271;SDS011;13997;48.902;12.472;2023-06-19T10:07:41;12.00;;;8.77;;
26271;SDS011;13997;48.902;12.472;2023-06-19T10:28:28;14.02;;;9.32;;
26271;SDS011;13997;48.902;12.472;2023-06-19T10:31:02;21.17;;;9.50;;
26271;SDS011;13997;48.902;12.472;2023-06-19T10:33:32;13.85;;;8.38;;
26271;SDS011;13997;48.902;12.472;2023-06-19T10:35:58;12.13;;;9.10;;
26271;SDS011;13997;48.902;12.472;2023-06-19T10:38:25;14.90;;;8.10;;
26271;SDS011;13997;48.902;12.472;2023-06-19T10:40:51;11.15;;;8.73;;
26271;SDS011;13997;48.902;12.472;2023-06-19T10:58:34;11.07;;;8.55;;
26271;SDS011;13997;48.902;12.472;2023-06-19T11:01:00;14.07;;;8.35;;
26271;SDS011;13997;48.902;12.472;2023-06-19T11:03:27;13.27;;;9.30;;
26271;SDS011;13997;48.902;12.472;2023-06-19T11:05:53;14.35;;;8.82;;
26271;SDS011;13997;48.902;12.472;2023-06-19T11:08:20;9.52;;;8.10;;
26271;SDS011;13997;48.902;12.472;2023-06-19T11:10:46;14.43;;;8.95;;
26271;SDS011;13997;48.902;12.472;2023-06-19T11:13:15;12.88;;;8.32;;
26271;SDS011;13997;48.902;12.472;2023-06-19T11:15:41;14.00;;;9.00;;
26271;SDS011;13997;48.902;12.472;2023-06-19T11:18:07;13.43;;;8.70;;
26271;SDS011;13997;48.902;12.472;2023-06-19T11:20:50;15.70;;;9.55;;
26271;SDS011;13997;48.902;12.472;2023-06-19T11:23:16;26.50;;;9.75;;
26271;SDS011;13997;48.902;12.472;2023-06-19T11:25:42;12.70;;;8.90;;
26271;SDS011;13997;48.902;12.472;2023-06-19T11:28:15;16.55;;;8.93;;
26271;SDS011;13997;48.902;12.472;2023-06-19T11:30:47;15.90;;;9.10;;
26271;SDS011;13997;48.902;12.472;2023-06-19T11:33:19;15.25;;;8.65;;
26271;SDS011;13997;48.902;12.472;2023-06-19T11:35:48;10.73;;;8.32;;
26271;SDS011;13997;48.902;12.472;2023-06-19T11:38:23;14.18;;;9.52;;
26271;SDS011;13997;48.902;12.472;2023-06-19T11:40:49;14.02;;;8.50;;
26271;SDS011;13997;48.902;12.472;2023-06-19T11:43:28;11.93;;;8.75;;
26271;SDS011;13997;48.902;12.472;2023-06-19T11:46:04;11.82;;;8.32;;
26271;SDS011;13997;48.902;12.472;2023-06-19T11:48:30;13.60;;;9.30;;
26271;SDS011;13997;48.902;12.472;2023-06-19T11:50:56;15.77;;;9.43;;
26271;SDS011;13997;48.902;12.472;2023-06-19T11:53:23;13.68;;;8.25;;
26271;SDS011;13997;48.902;12.472;2023-06-19T11:55:50;12.52;;;8.63;;
26271;SDS011;13997;48.902;12.472;2023-06-19T11:58:16;13.65;;;8.80;;
26271;SDS011;13997;48.902;12.472;2023-06-19T12:00:43;12.10;;;8.35;;
26271;SDS011;13997;48.902;12.472;2023-06-19T12:03:09;12.02;;;7.68;;
26271;SDS011;13997;48.902;12.472;2023-06-19T12:05:35;14.55;;;8.73;;
26271;SDS011;13997;48.902;12.472;2023-06-19T12:08:01;10.88;;;7.93;;
26271;SDS011;13997;48.902;12.472;2023-06-19T12:10:31;13.82;;;7.90;;
26271;SDS011;13997;48.902;12.472;2023-06-19T12:12:57;17.38;;;8.25;;
26271;SDS011;13997;48.902;12.472;2023-06-19T12:15:24;15.55;;;7.85;;
26271;SDS011;13997;48.902;12.472;2023-06-19T12:17:50;9.55;;;7.75;;
26271;SDS011;13997;48.902;12.472;2023-06-19T12:20:16;15.13;;;7.85;;
26271;SDS011;13997;48.902;12.472;2023-06-19T12:22:42;17.02;;;7.70;;
26271;SDS011;13997;48.902;12.472;2023-06-19T12:25:08;12.30;;;8.30;;
26271;SDS011;13997;48.902;12.472;2023-06-19T12:27:37;15.23;;;8.30;;
26271;SDS011;13997;48.902;12.472;2023-06-19T12:30:04;10.43;;;7.70;;
26271;SDS011;13997;48.902;12.472;2023-06-19T12:32:30;13.30;;;7.70;;
26271;SDS011;13997;48.902;12.472;2023-06-19T12:34:56;11.70;;;7.72;;
26271;SDS011;13997;48.902;12.472;2023-06-19T12:37:22;99.15;;;15.60;;
26271;SDS011;13997;48.902;12.472;2023-06-19T12:39:49;13.18;;;7.93;;
26271;SDS011;13997;48.902;12.472;2023-06-19T12:42:15;15.00;;;8.32;;
26271;SDS011;13997;48.902;12.472;2023-06-19T12:44:41;18.38;;;7.40;;
26271;SDS011;13997;48.902;12.472;2023-06-19T12:47:07;14.23;;;8.05;;
26271;SDS011;13997;48.902;12.472;2023-06-19T12:49:34;10.25;;;8.10;;
26271;SDS011;13997;48.902;12.472;2023-06-19T12:52:00;12.65;;;8.10;;
26271;SDS011;13997;48.902;12.472;2023-06-19T12:54:26;12.52;;;8.63;;
26271;SDS011;13997;48.902;12.472;2023-06-19T12:56:52;11.55;;;8.65;;
26271;SDS011;13997;48.902;12.472;2023-06-19T12:59:18;12.95;;;7.95;;
26271;SDS011;13997;48.902;12.472;2023-06-19T13:01:44;21.58;;;8.68;;
26271;SDS011;13997;48.902;12.472;2023-06-19T13:04:11;13.60;;;8.38;;
26271;SDS011;13997;48.902;12.472;2023-06-19T13:06:37;20.35;;;8.93;;
26271;SDS011;13997;48.902;12.472;2023-06-19T13:09:04;10.52;;;8.18;;
26271;SDS011;13997;48.902;12.472;2023-06-19T13:11:30;15.10;;;8.32;;
26271;SDS011;13997;48.902;12.472;2023-06-19T13:13:56;15.48;;;8.50;;
26271;SDS011;13997;48.902;12.472;2023-06-19T13:16:22;12.70;;;8.02;;
26271;SDS011;13997;48.902;12.472;2023-06-19T13:18:51;13.10;;;8.70;;
26271;SDS011;13997;48.902;12.472;2023-06-19T13:21:18;13.23;;;8.27;;
26271;SDS011;13997;48.902;12.472;2023-06-19T13:23:44;11.68;;;8.77;;
26271;SDS011;13997;48.902;12.472;2023-06-19T13:26:10;17.48;;;8.18;;
26271;SDS011;13997;48.902;12.472;2023-06-19T13:28:35;17.70;;;8.75;;
26271;SDS011;13997;48.902;12.472;2023-06-19T13:31:01;12.48;;;8.20;;
26271;SDS011;13997;48.902;12.472;2023-06-19T13:33:27;17.83;;;7.93;;
26271;SDS011;13997;48.902;12.472;2023-06-19T13:35:53;10.68;;;8.13;;
26271;SDS011;13997;48.902;12.472;2023-06-19T13:38:19;13.25;;;7.85;;
26271;SDS011;13997;48.902;12.472;2023-06-19T13:40:44;12.82;;;7.70;;
26271;SDS011;13997;48.902;12.472;2023-06-19T13:43:10;13.80;;;8.52;;
26271;SDS011;13997;48.902;12.472;2023-06-19T13:45:36;19.92;;;7.78;;
26271;SDS011;13997;48.902;12.472;2023-06-19T13:48:04;20.77;;;7.97;;
26271;SDS011;13997;48.902;12.472;2023-06-19T13:50:30;14.32;;;8.15;;
26271;SDS011;13997;48.902;12.472;2023-06-19T13:52:57;20.85;;;7.85;;
26271;SDS011;13997;48.902;12.472;2023-06-19T13:55:23;17.05;;;8.95;;
26271;SDS011;13997;48.902;12.472;2023-06-19T13:57:49;14.57;;;7.55;;
26271;SDS011;13997;48.902;12.472;2023-06-19T14:00:15;10.43;;;8.13;;
26271;SDS011;13997;48.902;12.472;2023-06-19T14:02:41;11.93;;;7.70;;
26271;SDS011;13997;48.902;12.472;2023-06-19T14:05:07;9.60;;;7.90;;
26271;SDS011;13997;48.902;12.472;2023-06-19T14:07:36;14.50;;;8.23;;
26271;SDS011;13997;48.902;12.472;2023-06-19T14:10:02;15.55;;;8.45;;
26271;SDS011;13997;48.902;12.472;2023-06-19T14:12:30;11.75;;;7.70;;
26271;SDS011;13997;48.902;12.472;2023-06-19T14:14:55;14.77;;;8.40;;
26271;SDS011;13997;48.902;12.472;2023-06-19T14:17:21;13.57;;;8.00;;
26271;SDS011;13997;48.902;12.472;2023-06-19T14:19:48;13.50;;;8.52;;
26271;SDS011;13997;48.902;12.472;2023-06-19T14:22:15;12.95;;;7.68;;
26271;SDS011;13997;48.902;12.472;2023-06-19T14:24:41;12.00;;;7.30;;
26271;SDS011;13997;48.902;12.472;2023-06-19T14:27:06;12.68;;;8.02;;
26271;SDS011;13997;48.902;12.472;2023-06-19T14:29:32;14.10;;;7.85;;
26271;SDS011;13997;48.902;12.472;2023-06-19T14:31:57;12.30;;;7.90;;
26271;SDS011;13997;48.902;12.472;2023-06-19T14:34:23;18.42;;;7.93;;
26271;SDS011;13997;48.902;12.472;2023-06-19T14:36:49;13.90;;;7.85;;
26271;SDS011;13997;48.902;12.472;2023-06-19T14:39:14;13.45;;;7.15;;
26271;SDS011;13997;48.902;12.472;2023-06-19T14:41:40;11.68;;;7.07;;
26271;SDS011;13997;48.902;12.472;2023-06-19T14:44:06;13.38;;;7.70;;
26271;SDS011;13997;48.902;12.472;2023-06-19T14:46:32;13.65;;;7.30;;
26271;SDS011;13997;48.902;12.472;2023-06-19T14:48:58;13.48;;;7.78;;
26271;SDS011;13997;48.902;12.472;2023-06-19T14:51:25;11.77;;;7.07;;
26271;SDS011;13997;48.902;12.472;2023-06-19T14:53:51;10.52;;;7.07;;
26271;SDS011;13997;48.902;12.472;2023-06-19T14:56:17;9.40;;;6.78;;
26271;SDS011;13997;48.902;12.472;2023-06-19T14:58:43;11.65;;;7.20;;
26271;SDS011;13997;48.902;12.472;2023-06-19T15:01:09;10.70;;;7.20;;
26271;SDS011;13997;48.902;12.472;2023-06-19T15:03:35;10.35;;;7.20;;
26271;SDS011;13997;48.902;12.472;2023-06-19T15:06:02;12.32;;;6.93;;
26271;SDS011;13997;48.902;12.472;2023-06-19T15:08:28;8.23;;;7.30;;
26271;SDS011;13997;48.902;12.472;2023-06-19T15:10:54;10.98;;;7.50;;
26271;SDS011;13997;48.902;12.472;2023-06-19T15:13:20;13.07;;;7.43;;
26271;SDS011;13997;48.902;12.472;2023-06-19T15:15:45;9.60;;;7.53;;
26271;SDS011;13997;48.902;12.472;2023-06-19T15:18:11;10.27;;;7.10;;
26271;SDS011;13997;48.902;12.472;2023-06-19T15:20:37;13.05;;;7.43;;
26271;SDS011;13997;48.902;12.472;2023-06-19T15:23:03;11.95;;;7.18;;
26271;SDS011;13997;48.902;12.472;2023-06-19T15:25:32;10.20;;;7.35;;
26271;SDS011;13997;48.902;12.472;2023-06-19T15:27:57;9.38;;;6.50;;
26271;SDS011;13997;48.902;12.472;2023-06-19T15:30:23;9.02;;;7.15;;
26271;SDS011;13997;48.902;12.472;2023-06-19T15:32:49;15.32;;;7.50;;
26271;SDS011;13997;48.902;12.472;2023-06-19T15:35:14;10.77;;;7.05;;
26271;SDS011;13997;48.902;12.472;2023-06-19T15:37:40;9.65;;;6.75;;
26271;SDS011;13997;48.902;12.472;2023-06-19T15:40:06;12.23;;;6.80;;
26271;SDS011;13997;48.902;12.472;2023-06-19T15:42:32;13.30;;;6.40;;
26271;SDS011;13997;48.902;12.472;2023-06-19T15:44:58;7.97;;;6.18;;
26271;SDS011;13997;48.902;12.472;2023-06-19T15:47:23;7.57;;;5.85;;
26271;SDS011;13997;48.902;12.472;2023-06-19T15:49:49;8.68;;;6.03;;
26271;SDS011;13997;48.902;12.472;2023-06-19T15:52:14;9.18;;;6.70;;
26271;SDS011;13997;48.902;12.472;2023-06-19T15:54:40;10.50;;;5.93;;
26271;SDS011;13997;48.902;12.472;2023-06-19T15:57:06;8.80;;;6.38;;
26271;SDS011;13997;48.902;12.472;2023-06-19T15:59:32;9.85;;;6.43;;
26271;SDS011;13997;48.902;12.472;2023-06-19T16:01:58;67.68;;;9.32;;
26271;SDS011;13997;48.902;12.472;2023-06-19T16:04:24;11.27;;;6.43;;
26271;SDS011;13997;48.902;12.472;2023-06-19T16:06:49;7.03;;;5.85;;
26271;SDS011;13997;48.902;12.472;2023-06-19T16:09:15;10.88;;;6.13;;
26271;SDS011;13997;48.902;12.472;2023-06-19T16:11:40;28.13;;;7.60;;
26271;SDS011;13997;48.902;12.472;2023-06-19T16:14:06;9.77;;;6.38;;
26271;SDS011;13997;48.902;12.472;2023-06-19T16:16:32;10.63;;;5.88;;
26271;SDS011;13997;48.902;12.472;2023-06-19T16:18:57;12.73;;;5.65;;
26271;SDS011;13997;48.902;12.472;2023-06-19T16:21:23;6.47;;;5.32;;
26271;SDS011;13997;48.902;12.472;2023-06-19T16:23:52;6.35;;;5.00;;
26271;SDS011;13997;48.902;12.472;2023-06-19T16:26:18;7.55;;;5.13;;
26271;SDS011;13997;48.902;12.472;2023-06-19T16:28:43;8.00;;;5.25;;
26271;SDS011;13997;48.902;12.472;2023-06-19T16:31:09;8.43;;;5.03;;
26271;SDS011;13997;48.902;12.472;2023-06-19T16:33:36;10.88;;;5.10;;
26271;SDS011;13997;48.902;12.472;2023-06-19T16:36:03;7.57;;;4.88;;
26271;SDS011;13997;48.902;12.472;2023-06-19T16:38:29;7.80;;;4.57;;
26271;SDS011;13997;48.902;12.472;2023-06-19T16:40:55;6.47;;;4.80;;
26271;SDS011;13997;48.902;12.472;2023-06-19T16:43:20;12.75;;;4.95;;
26271;SDS011;13997;48.902;12.472;2023-06-19T16:45:46;7.65;;;4.90;;
26271;SDS011;13997;48.902;12.472;2023-06-19T16:48:11;7.45;;;4.75;;
26271;SDS011;13997;48.902;12.472;2023-06-19T16:50:37;8.95;;;6.35;;
26271;SDS011;13997;48.902;12.472;2023-06-19T16:53:03;13.20;;;7.35;;
26271;SDS011;13997;48.902;12.472;2023-06-19T16:55:31;9.95;;;7.10;;
26271;SDS011;13997;48.902;12.472;2023-06-19T16:57:56;6.95;;;4.47;;
26271;SDS011;13997;48.902;12.472;2023-06-19T17:00:22;10.63;;;5.38;;
26271;SDS011;13997;48.902;12.472;2023-06-19T17:02:47;6.18;;;5.32;;
26271;SDS011;13997;48.902;12.472;2023-06-19T17:05:14;8.35;;;5.38;;
26271;SDS011;13997;48.902;12.472;2023-06-19T17:07:40;9.35;;;5.85;;
26271;SDS011;13997;48.902;12.472;2023-06-19T17:10:06;8.20;;;5.80;;
26271;SDS011;13997;48.902;12.472;2023-06-19T17:12:32;7.78;;;5.78;;
26271;SDS011;13997;48.902;12.472;2023-06-19T17:14:58;10.13;;;6.18;;
26271;SDS011;13997;48.902;12.472;2023-06-19T17:17:25;9.52;;;6.60;;
26271;SDS011;13997;48.902;12.472;2023-06-19T17:19:51;11.50;;;7.22;;
26271;SDS011;13997;48.902;12.472;2023-06-19T17:22:18;11.55;;;6.75;;
26271;SDS011;13997;48.902;12.472;2023-06-19T17:24:44;10.15;;;7.80;;
26271;SDS011;13997;48.902;12.472;2023-06-19T17:27:09;13.77;;;8.00;;
26271;SDS011;13997;48.902;12.472;2023-06-19T17:29:35;12.00;;;7.28;;
26271;SDS011;13997;48.902;12.472;2023-06-19T17:32:01;8.60;;;7.32;;
26271;SDS011;13997;48.902;12.472;2023-06-19T17:34:26;14.93;;;8.05;;
26271;SDS011;13997;48.902;12.472;2023-06-19T17:36:52;11.48;;;7.32;;
26271;SDS011;13997;48.902;12.472;2023-06-19T17:39:17;17.30;;;7.28;;
26271;SDS011;13997;48.902;12.472;2023-06-19T17:41:43;13.82;;;7.43;;
26271;SDS011;13997;48.902;12.472;2023-06-19T17:44:09;10.85;;;7.65;;
26271;SDS011;13997;48.902;12.472;2023-06-19T17:46:34;12.95;;;7.32;;
26271;SDS011;13997;48.902;12.472;2023-06-19T17:49:01;11.18;;;7.57;;
26271;SDS011;13997;48.902;12.472;2023-06-19T17:51:26;13.52;;;7.07;;
26271;SDS011;13997;48.902;12.472;2023-06-19T17:53:52;13.20;;;7.28;;
26271;SDS011;13997;48.902;12.472;2023-06-19T17:56:18;11.15;;;7.13;;
26271;SDS011;13997;48.902;12.472;2023-06-19T17:58:43;12.30;;;6.80;;
26271;SDS011;13997;48.902;12.472;2023-06-19T18:01:09;11.23;;;7.13;;
26271;SDS011;13997;48.902;12.472;2023-06-19T18:03:35;11.23;;;7.40;;
26271;SDS011;13997;48.902;12.472;2023-06-19T18:06:00;12.23;;;8.02;;
26271;SDS011;13997;48.902;12.472;2023-06-19T18:08:26;14.82;;;9.48;;
26271;SDS011;13997;48.902;12.472;2023-06-19T18:10:52;10.13;;;8.23;;
26271;SDS011;13997;48.902;12.472;2023-06-19T18:13:17;10.18;;;7.45;;
26271;SDS011;13997;48.902;12.472;2023-06-19T18:15:43;12.85;;;7.25;;
26271;SDS011;13997;48.902;12.472;2023-06-19T18:18:09;11.35;;;6.63;;
26271;SDS011;13997;48.902;12.472;2023-06-19T18:20:34;10.35;;;7.03;;
26271;SDS011;13997;48.902;12.472;2023-06-19T18:23:00;16.17;;;6.85;;
26271;SDS011;13997;48.902;12.472;2023-06-19T18:25:26;11.63;;;6.90;;
26271;SDS011;13997;48.902;12.472;2023-06-19T18:27:51;10.68;;;7.15;;
26271;SDS011;13997;48.902;12.472;2023-06-19T18:30:17;15.35;;;7.43;;
26271;SDS011;13997;48.902;12.472;2023-06-19T18:32:42;11.50;;;7.68;;
26271;SDS011;13997;48.902;12.472;2023-06-19T18:35:08;11.88;;;7.40;;
26271;SDS011;13997;48.902;12.472;2023-06-19T18:37:33;11.00;;;7.30;;
26271;SDS011;13997;48.902;12.472;2023-06-19T18:39:59;12.90;;;7.82;;
26271;SDS011;13997;48.902;12.472;2023-06-19T18:42:25;10.00;;;8.00;;
26271;SDS011;13997;48.902;12.472;2023-06-19T18:44:51;13.43;;;8.00;;
26271;SDS011;13997;48.902;12.472;2023-06-19T18:47:17;14.00;;;8.00;;
26271;SDS011;13997;48.902;12.472;2023-06-19T18:49:43;12.27;;;8.60;;
26271;SDS011;13997;48.902;12.472;2023-06-19T18:52:08;10.52;;;8.30;;
26271;SDS011;13997;48.902;12.472;2023-06-19T18:54:34;16.35;;;7.82;;
26271;SDS011;13997;48.902;12.472;2023-06-19T18:57:00;16.83;;;7.95;;
26271;SDS011;13997;48.902;12.472;2023-06-19T18:59:25;10.23;;;7.70;;
26271;SDS011;13997;48.902;12.472;2023-06-19T19:01:51;11.10;;;7.93;;
26271;SDS011;13997;48.902;12.472;2023-06-19T19:04:16;13.13;;;7.72;;
26271;SDS011;13997;48.902;12.472;2023-06-19T19:06:42;13.82;;;8.32;;
26271;SDS011;13997;48.902;12.472;2023-06-19T19:09:07;9.65;;;8.07;;
26271;SDS011;13997;48.902;12.472;2023-06-19T19:11:33;13.30;;;9.43;;
26271;SDS011;13997;48.902;12.472;2023-06-19T19:13:59;13.20;;;8.60;;
26271;SDS011;13997;48.902;12.472;2023-06-19T19:16:25;11.27;;;8.70;;
26271;SDS011;13997;48.902;12.472;2023-06-19T19:18:51;15.05;;;9.02;;
26271;SDS011;13997;48.902;12.472;2023-06-19T19:21:17;20.83;;;9.52;;
26271;SDS011;13997;48.902;12.472;2023-06-19T19:23:42;14.73;;;9.45;;
26271;SDS011;13997;48.902;12.472;2023-06-19T19:26:08;23.95;;;14.73;;
26271;SDS011;13997;48.902;12.472;2023-06-19T19:28:34;18.60;;;13.82;;
26271;SDS011;13997;48.902;12.472;2023-06-19T19:31:00;15.68;;;10.60;;
26271;SDS011;13997;48.902;12.472;2023-06-19T19:33:26;15.75;;;9.85;;
26271;SDS011;13997;48.902;12.472;2023-06-19T19:35:51;13.07;;;9.60;;
26271;SDS011;13997;48.902;12.472;2023-06-19T19:38:17;12.13;;;9.07;;
26271;SDS011;13997;48.902;12.472;2023-06-19T19:40:44;16.58;;;8.63;;
26271;SDS011;13997;48.902;12.472;2023-06-19T19:43:11;10.20;;;8.68;;
26271;SDS011;13997;48.902;12.472;2023-06-19T19:45:38;14.68;;;9.02;;
26271;SDS011;13997;48.902;12.472;2023-06-19T19:48:04;10.82;;;9.15;;
26271;SDS011;13997;48.902;12.472;2023-06-19T19:50:30;10.40;;;8.35;;
26271;SDS011;13997;48.902;12.472;2023-06-19T19:52:57;13.65;;;9.38;;
26271;SDS011;13997;48.902;12.472;2023-06-19T19:55:22;16.98;;;9.65;;
26271;SDS011;13997;48.902;12.472;2023-06-19T19:57:48;11.90;;;9.02;;
26271;SDS011;13997;48.902;12.472;2023-06-19T20:00:14;20.48;;;9.18;;
26271;SDS011;13997;48.902;12.472;2023-06-19T20:02:40;13.82;;;9.20;;
26271;SDS011;13997;48.902;12.472;2023-06-19T20:05:06;12.25;;;8.57;;
26271;SDS011;13997;48.902;12.472;2023-06-19T20:07:33;12.13;;;9.27;;
26271;SDS011;13997;48.902;12.472;2023-06-19T20:09:58;14.18;;;9.45;;
26271;SDS011;13997;48.902;12.472;2023-06-19T20:12:25;13.02;;;9.07;;
26271;SDS011;13997;48.902;12.472;2023-06-19T20:14:51;14.50;;;9.25;;
26271;SDS011;13997;48.902;12.472;2023-06-19T20:17:16;13.55;;;9.02;;
26271;SDS011;13997;48.902;12.472;2023-06-19T20:19:42;12.93;;;8.77;;
26271;SDS011;13997;48.902;12.472;2023-06-19T20:22:08;13.10;;;8.85;;
26271;SDS011;13997;48.902;12.472;2023-06-19T20:24:33;15.63;;;9.48;;
26271;SDS011;13997;48.902;12.472;2023-06-19T20:26:59;15.65;;;9.57;;
26271;SDS011;13997;48.902;12.472;2023-06-19T20:29:25;11.57;;;9.25;;
26271;SDS011;13997;48.902;12.472;2023-06-19T20:31:50;12.82;;;8.65;;
26271;SDS011;13997;48.902;12.472;2023-06-19T20:34:16;15.50;;;9.20;;
26271;SDS011;13997;48.902;12.472;2023-06-19T20:36:41;16.23;;;9.48;;
26271;SDS011;13997;48.902;12.472;2023-06-19T20:39:07;12.90;;;9.48;;
26271;SDS011;13997;48.902;12.472;2023-06-19T20:41:32;11.48;;;9.48;;
26271;SDS011;13997;48.902;12.472;2023-06-19T20:44:02;11.13;;;8.98;;
26271;SDS011;13997;48.902;12.472;2023-06-19T20:46:29;14.77;;;10.45;;
26271;SDS011;13997;48.902;12.472;2023-06-19T20:48:54;19.55;;;9.85;;
26271;SDS011;13997;48.902;12.472;2023-06-19T20:51:20;15.30;;;10.07;;
26271;SDS011;13997;48.902;12.472;2023-06-19T20:53:45;12.02;;;9.38;;
26271;SDS011;13997;48.902;12.472;2023-06-19T20:56:11;11.10;;;8.75;;
26271;SDS011;13997;48.902;12.472;2023-06-19T20:58:37;11.45;;;8.68;;
26271;SDS011;13997;48.902;12.472;2023-06-19T21:01:03;12.57;;;9.45;;
26271;SDS011;13997;48.902;12.472;2023-06-19T21:03:29;14.52;;;9.52;;
26271;SDS011;13997;48.902;12.472;2023-06-19T21:05:56;13.13;;;9.73;;
26271;SDS011;13997;48.902;12.472;2023-06-19T21:08:22;15.57;;;9.50;;
26271;SDS011;13997;48.902;12.472;2023-06-19T21:10:54;15.70;;;10.48;;
26271;SDS011;13997;48.902;12.472;2023-06-19T21:13:21;14.63;;;10.05;;
26271;SDS011;13997;48.902;12.472;2023-06-19T21:15:46;13.20;;;10.43;;
26271;SDS011;13997;48.902;12.472;2023-06-19T21:18:12;14.35;;;9.85;;
26271;SDS011;13997;48.902;12.472;2023-06-19T21:20:40;16.05;;;10.07;;
26271;SDS011;13997;48.902;12.472;2023-06-19T21:23:06;13.10;;;10.13;;
26271;SDS011;13997;48.902;12.472;2023-06-19T21:25:31;15.95;;;10.55;;
26271;SDS011;13997;48.902;12.472;2023-06-19T21:27:57;14.98;;;10.80;;
26271;SDS011;13997;48.902;12.472;2023-06-19T21:30:25;18.25;;;10.40;;
26271;SDS011;13997;48.902;12.472;2023-06-19T21:32:51;12.75;;;10.38;;
26271;SDS011;13997;48.902;12.472;2023-06-19T21:35:17;16.98;;;11.00;;
26271;SDS011;13997;48.902;12.472;2023-06-19T21:37:42;14.65;;;10.50;;
26271;SDS011;13997;48.902;12.472;2023-06-19T21:40:08;17.25;;;10.95;;
26271;SDS011;13997;48.902;12.472;2023-06-19T21:42:34;13.95;;;10.93;;
26271;SDS011;13997;48.902;12.472;2023-06-19T21:44:59;13.48;;;10.77;;
26271;SDS011;13997;48.902;12.472;2023-06-19T21:47:25;16.77;;;10.82;;
26271;SDS011;13997;48.902;12.472;2023-06-19T21:49:50;14.82;;;10.27;;
26271;SDS011;13997;48.902;12.472;2023-06-19T21:52:16;13.60;;;10.50;;
26271;SDS011;13997;48.902;12.472;2023-06-19T21:54:42;14.80;;;11.38;;
26271;SDS011;13997;48.902;12.472;2023-06-19T21:57:08;17.05;;;11.00;;
26271;SDS011;13997;48.902;12.472;2023-06-19T21:59:34;14.30;;;11.38;;
26271;SDS011;13997;48.902;12.472;2023-06-19T22:01:59;17.40;;;11.02;;
26271;SDS011;13997;48.902;12.472;2023-06-19T22:04:25;15.25;;;11.40;;
26271;SDS011;13997;48.902;12.472;2023-06-19T22:06:50;19.35;;;11.55;;
26271;SDS011;13997;48.902;12.472;2023-06-19T22:09:16;16.70;;;11.10;;
26271;SDS011;13997;48.902;12.472;2023-06-19T22:11:41;18.15;;;12.75;;
26271;SDS011;13997;48.902;12.472;2023-06-19T22:14:07;17.90;;;12.85;;
26271;SDS011;13997;48.902;12.472;2023-06-19T22:16:33;17.60;;;12.50;;
26271;SDS011;13997;48.902;12.472;2023-06-19T22:18:58;15.63;;;12.57;;
26271;SDS011;13997;48.902;12.472;2023-06-19T22:21:25;15.70;;;12.95;;
26271;SDS011;13997;48.902;12.472;2023-06-19T22:23:51;15.80;;;12.27;;
26271;SDS011;13997;48.902;12.472;2023-06-19T22:26:17;15.98;;;11.80;;
26271;SDS011;13997;48.902;12.472;2023-06-19T22:28:43;22.63;;;13.13;;
26271;SDS011;13997;48.902;12.472;2023-06-19T22:31:09;18.75;;;12.43;;